createdAt,value
2018-11-06T00:00:50.160Z,10.87
2018-11-06T00:01:50.089Z,10.87
2018-11-06T00:02:50.063Z,11.00
2018-11-06T00:03:50.034Z,10.94
2018-11-06T00:04:50.002Z,10.97
2018-11-06T00:05:50.043Z,10.94
2018-11-06T00:06:50.803Z,10.97
2018-11-06T00:07:49.912Z,10.95
2018-11-06T00:08:50.804Z,10.97
2018-11-06T00:09:49.849Z,11.00
2018-11-06T00:10:50.348Z,11.00
2018-11-06T00:11:50.291Z,10.94
2018-11-06T00:12:50.293Z,11.00
2018-11-06T00:13:49.733Z,11.02
2018-11-06T00:14:49.701Z,10.97
2018-11-06T00:15:49.856Z,11.00
2018-11-06T00:16:50.292Z,11.05
2018-11-06T00:17:50.289Z,11.08
2018-11-06T00:18:50.293Z,11.12
2018-11-06T00:19:50.310Z,11.05
2018-11-06T00:20:49.574Z,11.13
2018-11-06T00:21:50.300Z,11.21
2018-11-06T00:22:49.485Z,11.18
2018-11-06T00:23:50.294Z,11.26
2018-11-06T00:24:50.303Z,11.28
2018-11-06T00:25:49.419Z,11.27
2018-11-06T00:26:49.854Z,11.41
2018-11-06T00:27:49.363Z,11.48
2018-11-06T00:28:49.796Z,11.52
2018-11-06T00:29:49.794Z,11.52
2018-11-06T00:30:49.817Z,11.59
2018-11-06T00:31:49.805Z,11.59
2018-11-06T00:32:49.351Z,11.59
2018-11-06T00:33:49.153Z,11.60
2018-11-06T00:34:49.795Z,11.53
2018-11-06T00:35:49.795Z,11.63
2018-11-06T00:36:49.817Z,11.60
2018-11-06T00:37:49.352Z,11.59
2018-11-06T00:38:48.999Z,11.56
2018-11-06T00:39:49.805Z,11.57
2018-11-06T00:40:49.800Z,11.67
2018-11-06T00:41:48.945Z,11.66
2018-11-06T00:42:49.373Z,11.68
2018-11-06T00:43:49.816Z,11.66
2018-11-06T00:44:49.796Z,11.66
2018-11-06T00:45:49.297Z,11.70
2018-11-06T00:46:49.296Z,11.60
2018-11-06T00:47:48.852Z,11.70
2018-11-06T00:48:48.702Z,11.68
2018-11-06T00:49:49.301Z,11.67
2018-11-06T00:50:49.296Z,11.64
2018-11-06T00:51:50.202Z,11.63
2018-11-06T00:52:48.628Z,11.67
2018-11-06T00:53:48.853Z,11.67
2018-11-06T00:54:49.306Z,11.70
2018-11-06T00:55:49.300Z,11.68
2018-11-06T00:56:49.301Z,11.67
2018-11-06T00:57:48.490Z,11.73
2018-11-06T00:58:49.298Z,11.70
2018-11-06T00:59:49.723Z,11.64
2018-11-06T01:00:49.297Z,11.68
2018-11-06T01:01:49.301Z,11.63
2018-11-06T01:02:48.338Z,11.64
2018-11-06T01:03:48.798Z,11.67
2018-11-06T01:04:48.801Z,11.64
2018-11-06T01:05:48.801Z,11.67
2018-11-06T01:06:48.812Z,11.60
2018-11-06T01:07:48.366Z,11.70
2018-11-06T01:08:48.803Z,11.73
2018-11-06T01:09:48.801Z,11.71
2018-11-06T01:10:48.053Z,11.71
2018-11-06T01:11:48.800Z,11.71
2018-11-06T01:12:48.369Z,11.64
2018-11-06T01:13:48.805Z,11.63
2018-11-06T01:14:48.800Z,11.64
2018-11-06T01:15:47.914Z,11.64
2018-11-06T01:16:48.835Z,11.70
2018-11-06T01:17:48.373Z,11.70
2018-11-06T01:18:47.823Z,11.64
2018-11-06T01:19:48.303Z,11.63
2018-11-06T01:20:48.300Z,11.70
2018-11-06T01:21:48.359Z,11.67
2018-11-06T01:22:47.866Z,11.67
2018-11-06T01:23:48.304Z,11.68
2018-11-06T01:24:50.302Z,11.59
2018-11-06T01:25:48.302Z,11.57
2018-11-06T01:26:47.587Z,11.52
2018-11-06T01:27:47.600Z,11.53
2018-11-06T01:28:47.862Z,11.56
2018-11-06T01:29:48.309Z,11.49
2018-11-06T01:30:47.865Z,11.51
2018-11-06T01:31:47.440Z,11.48
2018-11-06T01:32:48.304Z,11.48
2018-11-06T01:33:48.301Z,11.56
2018-11-06T01:34:47.354Z,11.42
2018-11-06T01:35:47.432Z,11.42
2018-11-06T01:36:47.837Z,11.38
2018-11-06T01:37:47.269Z,11.33
2018-11-06T01:38:50.262Z,11.26
2018-11-06T01:39:47.806Z,11.26
2018-11-06T01:40:47.375Z,11.20
2018-11-06T01:41:47.808Z,11.12
2018-11-06T01:42:47.145Z,11.20
2018-11-06T01:43:47.814Z,11.15
2018-11-06T01:44:47.815Z,11.12
2018-11-06T01:45:47.368Z,11.21
2018-11-06T01:46:47.806Z,11.15
2018-11-06T01:47:47.807Z,11.09
2018-11-06T01:48:47.886Z,11.15
2018-11-06T01:49:47.807Z,11.20
2018-11-06T01:50:46.934Z,11.15
2018-11-06T01:51:47.836Z,11.21
2018-11-06T01:52:47.810Z,11.15
2018-11-06T01:53:46.790Z,11.16
2018-11-06T01:54:46.767Z,11.10
2018-11-06T01:55:46.863Z,11.10
2018-11-06T01:56:47.311Z,11.00
2018-11-06T01:57:47.308Z,10.97
2018-11-06T01:58:47.307Z,11.05
2018-11-06T01:59:46.615Z,11.05
2018-11-06T02:00:46.870Z,10.98
2018-11-06T02:01:46.563Z,11.00
2018-11-06T02:02:47.314Z,10.97
2018-11-06T02:03:47.311Z,10.92
2018-11-06T02:04:47.308Z,10.90
2018-11-06T02:05:46.501Z,10.95
2018-11-06T02:06:47.309Z,10.92
2018-11-06T02:07:47.316Z,10.94
2018-11-06T02:08:47.308Z,10.94
2018-11-06T02:09:46.322Z,10.92
2018-11-06T02:10:46.868Z,10.91
2018-11-06T02:11:46.266Z,10.92
2018-11-06T02:12:46.249Z,10.90
2018-11-06T02:13:46.808Z,10.88
2018-11-06T02:14:46.814Z,10.87
2018-11-06T02:15:46.207Z,10.87
2018-11-06T02:16:46.814Z,10.84
2018-11-06T02:17:46.079Z,10.79
2018-11-06T02:18:46.813Z,10.76
2018-11-06T02:19:46.813Z,10.80
2018-11-06T02:20:46.362Z,10.84
2018-11-06T02:21:46.820Z,10.76
2018-11-06T02:22:45.952Z,10.72
2018-11-06T02:23:46.848Z,10.75
2018-11-06T02:24:46.813Z,10.76
2018-11-06T02:25:45.930Z,10.66
2018-11-06T02:26:46.812Z,10.69
2018-11-06T02:27:45.837Z,10.67
2018-11-06T02:28:46.313Z,10.65
2018-11-06T02:29:45.730Z,10.57
2018-11-06T02:30:45.699Z,10.49
2018-11-06T02:31:46.316Z,10.51
2018-11-06T02:32:45.865Z,10.51
2018-11-06T02:33:46.316Z,10.54
2018-11-06T02:34:46.457Z,10.59
2018-11-06T02:35:46.315Z,10.55
2018-11-06T02:36:46.313Z,10.54
2018-11-06T02:37:45.875Z,10.46
2018-11-06T02:38:46.321Z,10.49
2018-11-06T02:39:46.323Z,10.39
2018-11-06T02:40:46.318Z,10.44
2018-11-06T02:41:45.373Z,10.39
2018-11-06T02:42:45.876Z,10.44
2018-11-06T02:43:45.816Z,10.38
2018-11-06T02:44:45.816Z,10.41
2018-11-06T02:45:45.815Z,10.35
2018-11-06T02:46:45.817Z,10.42
2018-11-06T02:47:45.382Z,10.35
2018-11-06T02:48:45.163Z,10.28
2018-11-06T02:49:45.134Z,10.32
2018-11-06T02:50:45.823Z,10.33
2018-11-06T02:51:45.820Z,10.33
2018-11-06T02:52:45.390Z,10.38
2018-11-06T02:53:45.008Z,10.20
2018-11-06T02:54:45.825Z,10.28
2018-11-06T02:55:45.845Z,10.21
2018-11-06T02:56:45.820Z,10.20
2018-11-06T02:57:45.376Z,10.20
2018-11-06T02:58:45.824Z,10.25
2018-11-06T02:59:45.820Z,10.23
2018-11-06T03:00:45.348Z,10.21
2018-11-06T03:01:45.320Z,10.15
2018-11-06T03:02:44.791Z,10.15
2018-11-06T03:03:44.753Z,10.17
2018-11-06T03:04:45.322Z,10.21
2018-11-06T03:05:45.319Z,10.20
2018-11-06T03:06:45.318Z,10.17
2018-11-06T03:07:45.325Z,10.26
2018-11-06T03:08:44.880Z,10.15
2018-11-06T03:09:44.525Z,10.14
2018-11-06T03:10:44.494Z,10.13
2018-11-06T03:11:44.464Z,10.11
2018-11-06T03:12:44.469Z,10.07
2018-11-06T03:13:44.452Z,10.05
2018-11-06T03:14:45.325Z,10.05
2018-11-06T03:15:45.323Z,10.13
2018-11-06T03:16:44.364Z,10.10
2018-11-06T03:17:44.827Z,10.00
2018-11-06T03:18:44.299Z,10.03
2018-11-06T03:19:44.821Z,9.98
2018-11-06T03:20:44.821Z,10.03
2018-11-06T03:21:44.165Z,10.03
2018-11-06T03:22:44.889Z,10.00
2018-11-06T03:23:44.374Z,10.00
2018-11-06T03:24:44.828Z,9.98
2018-11-06T03:25:44.821Z,9.99
2018-11-06T03:26:44.831Z,10.02
2018-11-06T03:27:44.028Z,9.93
2018-11-06T03:28:43.949Z,9.98
2018-11-06T03:29:44.823Z,9.89
2018-11-06T03:30:43.945Z,9.92
2018-11-06T03:31:43.858Z,9.98
2018-11-06T03:32:46.820Z,9.93
2018-11-06T03:33:43.793Z,9.95
2018-11-06T03:34:43.769Z,9.89
2018-11-06T03:35:43.883Z,9.82
2018-11-06T03:36:44.325Z,9.78
2018-11-06T03:37:43.741Z,9.89
2018-11-06T03:38:44.330Z,9.88
2018-11-06T03:39:43.621Z,9.84
2018-11-06T03:40:43.622Z,9.84
2018-11-06T03:41:44.328Z,9.88
2018-11-06T03:42:43.540Z,9.82
2018-11-06T03:43:44.326Z,9.88
2018-11-06T03:44:43.468Z,9.81
2018-11-06T03:45:43.520Z,9.78
2018-11-06T03:46:44.328Z,9.78
2018-11-06T03:47:43.371Z,9.72
2018-11-06T03:48:43.344Z,9.74
2018-11-06T03:49:43.830Z,9.67
2018-11-06T03:50:43.381Z,9.75
2018-11-06T03:51:43.388Z,9.77
2018-11-06T03:52:43.830Z,9.75
2018-11-06T03:53:43.196Z,9.70
2018-11-06T03:54:43.833Z,9.59
2018-11-06T03:55:43.128Z,9.66
2018-11-06T03:56:43.385Z,9.63
2018-11-06T03:57:43.833Z,9.63
2018-11-06T03:58:43.041Z,9.55
2018-11-06T03:59:43.008Z,9.63
2018-11-06T04:00:43.826Z,9.64
2018-11-06T04:01:43.384Z,9.63
2018-11-06T04:02:43.828Z,9.59
2018-11-06T04:03:43.832Z,9.60
2018-11-06T04:04:43.385Z,9.64
2018-11-06T04:05:42.858Z,9.52
2018-11-06T04:06:42.839Z,9.52
2018-11-06T04:07:43.329Z,9.50
2018-11-06T04:08:42.731Z,9.48
2018-11-06T04:09:42.741Z,9.55
2018-11-06T04:10:42.667Z,9.62
2018-11-06T04:11:43.332Z,9.57
2018-11-06T04:12:42.885Z,9.57
2018-11-06T04:13:43.327Z,9.50
2018-11-06T04:14:43.334Z,9.45
2018-11-06T04:15:42.882Z,9.41
2018-11-06T04:16:43.334Z,9.41
2018-11-06T04:17:42.453Z,9.42
2018-11-06T04:18:43.331Z,9.41
2018-11-06T04:19:42.919Z,9.45
2018-11-06T04:20:42.902Z,9.38
2018-11-06T04:21:42.330Z,9.30
2018-11-06T04:22:42.309Z,9.38
2018-11-06T04:23:42.267Z,9.39
2018-11-06T04:24:42.835Z,9.45
2018-11-06T04:25:42.257Z,9.42
2018-11-06T04:26:42.828Z,9.42
2018-11-06T04:27:42.192Z,9.47
2018-11-06T04:28:42.127Z,9.41
2018-11-06T04:29:42.833Z,9.47
2018-11-06T04:30:42.831Z,9.35
2018-11-06T04:31:42.831Z,9.48
2018-11-06T04:32:42.391Z,9.41
2018-11-06T04:33:41.973Z,9.45
2018-11-06T04:34:41.933Z,9.45
2018-11-06T04:35:41.899Z,9.52
2018-11-06T04:36:42.833Z,9.48
2018-11-06T04:37:41.907Z,9.53
2018-11-06T04:38:41.816Z,9.59
2018-11-06T04:39:41.780Z,9.47
2018-11-06T04:40:42.338Z,9.52
2018-11-06T04:41:41.726Z,9.57
2018-11-06T04:42:41.747Z,9.59
2018-11-06T04:43:41.660Z,9.53
2018-11-06T04:44:41.636Z,9.44
2018-11-06T04:45:41.599Z,9.53
2018-11-06T04:46:42.334Z,9.53
2018-11-06T04:47:41.891Z,9.48
2018-11-06T04:48:41.761Z,9.53
2018-11-06T04:49:42.343Z,9.53
2018-11-06T04:50:42.355Z,9.52
2018-11-06T04:51:42.345Z,9.57
2018-11-06T04:52:42.492Z,9.48
2018-11-06T04:53:41.888Z,9.47
2018-11-06T04:54:41.836Z,9.39
2018-11-06T04:55:41.837Z,9.32
2018-11-06T04:56:41.254Z,9.39
2018-11-06T04:57:41.240Z,9.37
2018-11-06T04:58:41.261Z,9.44
2018-11-06T04:59:41.168Z,9.41
2018-11-06T05:00:41.180Z,9.38
2018-11-06T05:01:41.839Z,9.41
2018-11-06T05:02:41.839Z,9.47
2018-11-06T05:03:41.085Z,9.44
2018-11-06T05:04:41.395Z,9.48
2018-11-06T05:05:41.397Z,9.37
2018-11-06T05:06:41.855Z,9.41
2018-11-06T05:07:41.843Z,9.47
2018-11-06T05:08:40.896Z,9.42
2018-11-06T05:09:41.388Z,9.39
2018-11-06T05:10:41.043Z,9.38
2018-11-06T05:11:40.797Z,9.27
2018-11-06T05:12:41.342Z,9.34
2018-11-06T05:13:40.732Z,9.30
2018-11-06T05:14:40.915Z,9.23
2018-11-06T05:15:41.340Z,9.20
2018-11-06T05:16:40.648Z,9.12
2018-11-06T05:17:40.622Z,9.08
2018-11-06T05:18:40.580Z,9.05
2018-11-06T05:19:40.611Z,9.04
2018-11-06T05:20:40.908Z,9.01
2018-11-06T05:21:41.343Z,8.98
2018-11-06T05:22:41.343Z,8.98
2018-11-06T05:23:40.458Z,8.94
2018-11-06T05:24:40.400Z,8.94
2018-11-06T05:25:40.493Z,8.94
2018-11-06T05:26:40.840Z,8.98
2018-11-06T05:27:40.307Z,8.94
2018-11-06T05:28:40.275Z,8.92
2018-11-06T05:29:40.243Z,8.94
2018-11-06T05:30:40.253Z,8.94
2018-11-06T05:31:40.396Z,8.98
2018-11-06T05:32:40.218Z,8.97
2018-11-06T05:33:40.860Z,8.92
2018-11-06T05:34:41.769Z,8.94
2018-11-06T05:35:40.850Z,8.95
2018-11-06T05:36:40.081Z,9.00
2018-11-06T05:37:39.995Z,8.97
2018-11-06T05:38:39.965Z,9.08
2018-11-06T05:39:40.918Z,9.00
2018-11-06T05:40:40.842Z,9.00
2018-11-06T05:41:40.389Z,9.03
2018-11-06T05:42:39.844Z,9.05
2018-11-06T05:43:39.871Z,9.04
2018-11-06T05:44:40.345Z,9.04
2018-11-06T05:45:40.408Z,9.03
2018-11-06T05:46:39.761Z,8.95
2018-11-06T05:47:40.340Z,8.94
2018-11-06T05:48:40.341Z,9.03
2018-11-06T05:49:39.624Z,8.97
2018-11-06T05:50:40.344Z,8.98
2018-11-06T05:51:39.899Z,9.01
2018-11-06T05:52:40.357Z,9.03
2018-11-06T05:53:39.896Z,9.08
2018-11-06T05:54:39.471Z,8.95
2018-11-06T05:55:42.343Z,9.01
2018-11-06T05:56:40.344Z,8.90
2018-11-06T05:57:39.379Z,8.97
2018-11-06T05:58:39.393Z,8.92
2018-11-06T05:59:39.323Z,8.95
2018-11-06T06:00:39.318Z,8.79
2018-11-06T06:01:39.850Z,8.85
2018-11-06T06:02:41.847Z,8.82
2018-11-06T06:03:39.397Z,8.72
2018-11-06T06:04:39.847Z,8.71
2018-11-06T06:05:39.130Z,8.77
2018-11-06T06:06:39.843Z,8.80
2018-11-06T06:07:39.071Z,8.76
2018-11-06T06:08:39.407Z,8.65
2018-11-06T06:09:39.754Z,8.67
2018-11-06T06:10:39.852Z,8.65
2018-11-06T06:11:39.846Z,8.61
2018-11-06T06:12:38.917Z,8.58
2018-11-06T06:13:38.927Z,8.62
2018-11-06T06:14:38.858Z,8.49
2018-11-06T06:15:38.831Z,8.49
2018-11-06T06:16:38.832Z,8.52
2018-11-06T06:17:38.762Z,8.43
2018-11-06T06:18:38.966Z,8.52
2018-11-06T06:19:39.346Z,8.57
2018-11-06T06:20:39.349Z,8.61
2018-11-06T06:21:39.352Z,8.54
2018-11-06T06:22:39.396Z,8.61
2018-11-06T06:23:38.618Z,8.57
2018-11-06T06:24:38.904Z,8.60
2018-11-06T06:25:39.351Z,8.64
2018-11-06T06:26:39.349Z,8.62
2018-11-06T06:27:38.451Z,8.62
2018-11-06T06:28:38.547Z,8.60
2018-11-06T06:29:39.403Z,8.72
2018-11-06T06:30:39.355Z,8.60
2018-11-06T06:31:38.333Z,8.64
2018-11-06T06:32:38.850Z,8.77
2018-11-06T06:33:38.266Z,8.80
2018-11-06T06:34:38.506Z,8.82
2018-11-06T06:35:38.886Z,8.71
2018-11-06T06:36:38.849Z,8.79
2018-11-06T06:37:38.149Z,8.87
2018-11-06T06:38:38.856Z,8.87
2018-11-06T06:39:38.127Z,8.89
2018-11-06T06:40:38.409Z,8.92
2018-11-06T06:41:38.855Z,8.86
2018-11-06T06:42:37.987Z,8.89
2018-11-06T06:43:40.849Z,8.87
2018-11-06T06:44:37.924Z,8.89
2018-11-06T06:45:37.939Z,8.89
2018-11-06T06:46:38.853Z,8.94
2018-11-06T06:47:37.829Z,8.89
2018-11-06T06:48:38.350Z,8.89
2018-11-06T06:49:38.353Z,8.85
2018-11-06T06:50:37.940Z,8.94
2018-11-06T06:51:37.705Z,8.92
2018-11-06T06:52:37.679Z,8.87
2018-11-06T06:53:38.354Z,8.94
2018-11-06T06:54:38.569Z,8.86
2018-11-06T06:55:37.627Z,8.90
2018-11-06T06:56:37.556Z,8.86
2018-11-06T06:57:37.524Z,8.92
2018-11-06T06:58:37.495Z,8.87
2018-11-06T06:59:37.458Z,8.92
2018-11-06T07:00:37.476Z,8.89
2018-11-06T07:01:37.395Z,8.90
2018-11-06T07:02:37.439Z,8.94
2018-11-06T07:03:37.363Z,8.92
2018-11-06T07:04:37.309Z,8.97
2018-11-06T07:05:37.318Z,8.98
2018-11-06T07:06:37.291Z,8.97
2018-11-06T07:07:37.215Z,8.98
2018-11-06T07:08:37.236Z,9.04
2018-11-06T07:09:37.169Z,9.08
2018-11-06T07:10:37.123Z,9.08
2018-11-06T07:11:37.093Z,9.08
2018-11-06T07:12:37.084Z,9.11
2018-11-06T07:13:37.074Z,9.14
2018-11-06T07:14:37.004Z,9.23
2018-11-06T07:15:38.760Z,9.30
2018-11-06T07:16:36.943Z,9.34
2018-11-06T07:17:36.908Z,9.32
2018-11-06T07:18:37.008Z,9.39
2018-11-06T07:19:37.389Z,9.41
2018-11-06T07:20:36.815Z,9.48
2018-11-06T07:21:36.785Z,9.45
2018-11-06T07:22:36.752Z,9.48
2018-11-06T07:23:36.799Z,9.60
2018-11-06T07:24:36.695Z,9.63
2018-11-06T07:25:36.660Z,9.67
2018-11-06T07:26:36.653Z,9.67
2018-11-06T07:27:36.605Z,9.64
2018-11-06T07:28:36.685Z,9.67
2018-11-06T07:29:36.588Z,9.72
2018-11-06T07:30:36.525Z,9.71
2018-11-06T07:31:36.496Z,9.80
2018-11-06T07:32:36.450Z,9.88
2018-11-06T07:33:36.458Z,9.89
2018-11-06T07:34:36.523Z,9.99
2018-11-06T07:35:36.538Z,10.07
2018-11-06T07:36:36.329Z,10.14
2018-11-06T07:37:36.297Z,10.15
2018-11-06T07:38:36.273Z,10.14
2018-11-06T07:39:36.293Z,10.18
2018-11-06T07:40:36.272Z,10.20
2018-11-06T07:41:36.184Z,10.20
2018-11-06T07:42:36.151Z,10.35
2018-11-06T07:43:36.117Z,10.29
2018-11-06T07:44:36.134Z,10.33
2018-11-06T07:45:36.058Z,10.44
2018-11-06T07:46:36.031Z,10.46
2018-11-06T07:47:36.008Z,10.46
2018-11-06T07:48:36.017Z,10.51
2018-11-06T07:49:35.935Z,10.63
2018-11-06T07:50:35.953Z,10.61
2018-11-06T07:51:35.875Z,10.67
2018-11-06T07:52:35.861Z,10.79
2018-11-06T07:53:35.834Z,10.77
2018-11-06T07:54:35.800Z,10.77
2018-11-06T07:55:35.819Z,10.85
2018-11-06T07:56:35.728Z,10.88
2018-11-06T07:57:35.698Z,10.94
2018-11-06T07:58:35.674Z,10.97
2018-11-06T07:59:35.637Z,11.06
2018-11-06T08:00:35.661Z,11.15
2018-11-06T08:01:35.577Z,11.20
2018-11-06T08:02:35.557Z,11.21
2018-11-06T08:03:35.520Z,11.21
2018-11-06T08:04:35.491Z,11.28
2018-11-06T08:05:35.513Z,11.30
2018-11-06T08:06:35.475Z,11.34
2018-11-06T08:07:35.400Z,11.33
2018-11-06T08:08:35.381Z,11.35
2018-11-06T08:09:35.411Z,11.49
2018-11-06T08:10:35.362Z,11.49
2018-11-06T08:11:35.279Z,11.52
2018-11-06T08:12:35.252Z,11.63
2018-11-06T08:13:35.221Z,11.56
2018-11-06T08:14:35.300Z,11.63
2018-11-06T08:15:35.207Z,11.66
2018-11-06T08:16:35.139Z,11.67
2018-11-06T08:17:35.104Z,11.76
2018-11-06T08:18:35.074Z,11.81
2018-11-06T08:19:35.047Z,11.78
2018-11-06T08:20:35.074Z,11.85
2018-11-06T08:21:34.989Z,11.91
2018-11-06T08:22:34.966Z,11.97
2018-11-06T08:23:34.943Z,11.86
2018-11-06T08:24:34.903Z,11.98
2018-11-06T08:25:34.920Z,12.01
2018-11-06T08:26:34.907Z,12.03
2018-11-06T08:27:34.875Z,12.03
2018-11-06T08:28:34.829Z,12.03
2018-11-06T08:29:34.754Z,12.05
2018-11-06T08:30:34.759Z,12.03
2018-11-06T08:31:35.179Z,12.15
2018-11-06T08:32:35.145Z,12.04
2018-11-06T08:33:34.757Z,12.11
2018-11-06T08:34:34.612Z,12.13
2018-11-06T08:35:34.580Z,12.13
2018-11-06T08:36:34.582Z,12.19
2018-11-06T08:37:34.522Z,12.15
2018-11-06T08:38:34.539Z,12.18
2018-11-06T08:39:34.465Z,12.22
2018-11-06T08:40:34.486Z,12.31
2018-11-06T08:41:34.407Z,12.38
2018-11-06T08:42:34.507Z,12.37
2018-11-06T08:43:34.347Z,12.45
2018-11-06T08:44:34.362Z,12.47
2018-11-06T08:45:34.335Z,12.52
2018-11-06T08:46:34.265Z,12.59
2018-11-06T08:47:34.282Z,12.74
2018-11-06T08:48:34.204Z,12.69
2018-11-06T08:49:34.176Z,12.73
2018-11-06T08:50:34.227Z,12.74
2018-11-06T08:51:34.125Z,12.83
2018-11-06T08:52:34.092Z,12.88
2018-11-06T08:53:34.060Z,12.81
2018-11-06T08:54:34.910Z,12.84
2018-11-06T08:55:34.054Z,12.89
2018-11-06T08:56:33.974Z,12.94
2018-11-06T08:57:33.964Z,13.06
2018-11-06T08:58:33.918Z,13.06
2018-11-06T08:59:33.893Z,13.03
2018-11-06T09:00:33.905Z,13.01
2018-11-06T09:01:33.833Z,13.10
2018-11-06T09:02:33.854Z,13.13
2018-11-06T09:03:33.775Z,13.06
2018-11-06T09:04:33.746Z,13.06
2018-11-06T09:05:33.778Z,13.19
2018-11-06T09:06:34.412Z,13.21
2018-11-06T09:07:33.669Z,13.29
2018-11-06T09:08:33.645Z,13.31
2018-11-06T09:09:33.604Z,13.42
2018-11-06T09:10:33.623Z,13.40
2018-11-06T09:11:33.596Z,13.39
2018-11-06T09:12:33.549Z,13.47
2018-11-06T09:13:33.495Z,13.39
2018-11-06T09:14:33.487Z,13.53
2018-11-06T09:15:33.479Z,13.55
2018-11-06T09:16:33.413Z,13.51
2018-11-06T09:17:33.380Z,13.54
2018-11-06T09:18:33.349Z,13.55
2018-11-06T09:19:33.334Z,13.55
2018-11-06T09:20:33.348Z,13.57
2018-11-06T09:21:33.269Z,13.54
2018-11-06T09:22:33.249Z,13.65
2018-11-06T09:23:33.210Z,13.69
2018-11-06T09:24:33.187Z,13.70
2018-11-06T09:25:33.193Z,13.75
2018-11-06T09:26:33.173Z,13.83
2018-11-06T09:27:33.104Z,13.78
2018-11-06T09:28:33.075Z,13.79
2018-11-06T09:29:33.189Z,13.84
2018-11-06T09:30:33.028Z,13.86
2018-11-06T09:31:33.034Z,13.87
2018-11-06T09:32:32.960Z,13.95
2018-11-06T09:33:32.937Z,13.93
2018-11-06T09:34:32.900Z,13.84
2018-11-06T09:35:32.877Z,13.84
2018-11-06T09:36:32.896Z,14.02
2018-11-06T09:37:32.847Z,13.95
2018-11-06T09:38:32.796Z,14.02
2018-11-06T09:39:32.764Z,13.99
2018-11-06T09:40:32.737Z,14.08
2018-11-06T09:41:32.825Z,14.15
2018-11-06T09:42:32.681Z,14.11
2018-11-06T09:43:32.712Z,14.16
2018-11-06T09:45:32.650Z,14.15
2018-11-06T09:46:32.613Z,14.21
2018-11-06T09:47:32.546Z,14.19
2018-11-06T09:48:32.604Z,14.23
2018-11-06T09:49:32.518Z,14.24
2018-11-06T09:50:32.483Z,14.34
2018-11-06T09:51:32.947Z,14.36
2018-11-06T09:52:32.405Z,14.39
2018-11-06T09:53:32.376Z,14.46
2018-11-06T09:54:32.391Z,14.48
2018-11-06T09:55:32.334Z,14.48
2018-11-06T09:56:32.316Z,14.63
2018-11-06T09:57:32.264Z,14.59
2018-11-06T09:58:32.288Z,14.57
2018-11-06T09:59:32.213Z,14.61
2018-11-06T10:00:32.184Z,14.67
2018-11-06T10:01:32.156Z,14.67
2018-11-06T10:02:32.173Z,14.74
2018-11-06T10:03:32.133Z,14.77
2018-11-06T10:04:32.083Z,14.79
2018-11-06T10:05:32.049Z,14.71
2018-11-06T10:06:32.194Z,14.89
2018-11-06T10:07:32.094Z,14.86
2018-11-06T10:08:31.974Z,14.89
2018-11-06T10:09:31.943Z,14.95
2018-11-06T10:10:31.929Z,14.89
2018-11-06T10:11:31.920Z,14.97
2018-11-06T10:12:31.909Z,14.89
2018-11-06T10:13:31.920Z,14.94
2018-11-06T10:14:31.804Z,15.00
2018-11-06T10:15:31.818Z,14.98
2018-11-06T10:16:31.756Z,14.86
2018-11-06T10:17:31.781Z,14.97
2018-11-06T10:18:31.701Z,14.98
2018-11-06T10:19:31.684Z,15.01
2018-11-06T10:20:31.647Z,15.04
2018-11-06T10:21:31.621Z,14.98
2018-11-06T10:22:31.769Z,15.01
2018-11-06T10:23:31.579Z,15.07
2018-11-06T10:24:31.539Z,15.10
2018-11-06T10:25:31.509Z,15.13
2018-11-06T10:26:31.492Z,15.18
2018-11-06T10:27:31.505Z,15.13
2018-11-06T10:28:31.473Z,15.08
2018-11-06T10:29:31.402Z,15.19
2018-11-06T10:30:31.373Z,15.15
2018-11-06T10:31:31.344Z,15.23
2018-11-06T10:32:31.318Z,15.31
2018-11-06T10:33:31.339Z,15.37
2018-11-06T10:34:31.315Z,15.40
2018-11-06T10:35:31.479Z,15.45
2018-11-06T10:36:31.219Z,15.45
2018-11-06T10:37:31.190Z,15.47
2018-11-06T10:38:31.157Z,15.45
2018-11-06T10:39:31.179Z,15.49
2018-11-06T10:40:31.449Z,15.45
2018-11-06T10:41:31.077Z,15.45
2018-11-06T10:42:31.056Z,15.59
2018-11-06T10:43:31.027Z,15.55
2018-11-06T10:44:31.062Z,15.59
2018-11-06T10:45:30.974Z,15.59
2018-11-06T10:46:30.943Z,15.65
2018-11-06T10:47:30.927Z,15.63
2018-11-06T10:48:30.896Z,15.58
2018-11-06T10:49:30.923Z,15.75
2018-11-06T10:50:30.836Z,15.70
2018-11-06T10:51:30.832Z,15.70
2018-11-06T10:52:30.785Z,15.67
2018-11-06T10:53:30.772Z,15.70
2018-11-06T10:54:30.786Z,15.73
2018-11-06T10:55:30.704Z,15.70
2018-11-06T10:56:30.747Z,15.67
2018-11-06T10:57:30.654Z,15.75
2018-11-06T10:58:30.634Z,15.77
2018-11-06T10:59:30.599Z,15.75
2018-11-06T11:00:30.630Z,15.81
2018-11-06T11:01:30.602Z,15.84
2018-11-06T11:02:30.524Z,15.84
2018-11-06T11:03:30.517Z,15.93
2018-11-06T11:04:30.470Z,15.98
2018-11-06T11:05:30.444Z,15.91
2018-11-06T11:06:30.486Z,16.07
2018-11-06T11:07:30.389Z,15.96
2018-11-06T11:08:30.898Z,15.98
2018-11-06T11:09:30.333Z,16.10
2018-11-06T11:10:30.317Z,16.08
2018-11-06T11:11:30.329Z,16.11
2018-11-06T11:12:30.904Z,16.10
2018-11-06T11:13:30.311Z,16.04
2018-11-06T11:14:30.210Z,16.11
2018-11-06T11:15:30.175Z,16.16
2018-11-06T11:16:30.196Z,16.10
2018-11-06T11:17:30.127Z,16.21
2018-11-06T11:18:30.098Z,16.17
2018-11-06T11:19:30.079Z,16.22
2018-11-06T11:20:30.045Z,16.14
2018-11-06T11:21:30.080Z,16.17
2018-11-06T11:22:30.003Z,16.25
2018-11-06T11:23:29.967Z,16.30
2018-11-06T11:24:29.942Z,16.22
2018-11-06T11:25:29.945Z,16.29
2018-11-06T11:26:29.990Z,16.40
2018-11-06T11:27:29.863Z,16.36
2018-11-06T11:28:29.836Z,16.40
2018-11-06T11:29:29.810Z,16.45
2018-11-06T11:30:29.810Z,16.42
2018-11-06T11:31:29.819Z,16.47
2018-11-06T11:32:29.786Z,16.44
2018-11-06T11:33:29.755Z,16.51
2018-11-06T11:34:29.678Z,16.52
2018-11-06T11:35:29.678Z,16.54
2018-11-06T11:36:29.631Z,16.51
2018-11-06T11:37:29.621Z,16.55
2018-11-06T11:38:29.633Z,16.59
2018-11-06T11:39:29.548Z,16.54
2018-11-06T11:40:29.563Z,16.59
2018-11-06T11:41:29.502Z,16.57
2018-11-06T11:42:29.543Z,16.57
2018-11-06T11:43:29.454Z,16.57
2018-11-06T11:44:29.420Z,16.59
2018-11-06T11:45:29.394Z,16.55
2018-11-06T11:46:29.368Z,16.58
2018-11-06T11:47:29.401Z,16.66
2018-11-06T11:48:29.317Z,16.66
2018-11-06T11:49:29.293Z,16.66
2018-11-06T11:50:29.278Z,16.69
2018-11-06T11:51:29.279Z,16.70
2018-11-06T11:52:29.280Z,16.69
2018-11-06T11:53:29.187Z,16.77
2018-11-06T11:54:29.908Z,16.72
2018-11-06T11:55:29.170Z,16.66
2018-11-06T11:56:29.110Z,16.67
2018-11-06T11:57:29.133Z,16.80
2018-11-06T11:58:29.062Z,16.74
2018-11-06T11:59:29.035Z,16.77
2018-11-06T12:00:29.137Z,16.88
2018-11-06T12:01:28.984Z,16.85
2018-11-06T12:02:28.964Z,16.85
2018-11-06T12:03:28.940Z,16.85
2018-11-06T12:04:28.905Z,16.88
2018-11-06T12:05:29.827Z,16.84
2018-11-06T12:06:28.869Z,16.90
2018-11-06T12:07:28.829Z,16.99
2018-11-06T12:08:28.803Z,16.90
2018-11-06T12:09:28.776Z,17.02
2018-11-06T12:10:29.316Z,16.88
2018-11-06T12:11:28.769Z,16.90
2018-11-06T12:12:28.701Z,16.90
2018-11-06T12:13:28.735Z,17.00
2018-11-06T12:14:28.663Z,16.94
2018-11-06T12:15:28.628Z,16.97
2018-11-06T12:16:28.600Z,17.03
2018-11-06T12:17:28.643Z,17.02
2018-11-06T12:18:28.609Z,17.09
2018-11-06T12:19:28.518Z,17.10
2018-11-06T12:20:28.495Z,17.05
2018-11-06T12:21:28.482Z,17.17
2018-11-06T12:22:28.443Z,17.20
2018-11-06T12:23:28.514Z,17.07
2018-11-06T12:24:28.404Z,17.09
2018-11-06T12:25:28.517Z,17.07
2018-11-06T12:26:29.325Z,17.20
2018-11-06T12:27:28.318Z,17.22
2018-11-06T12:28:28.555Z,17.22
2018-11-06T12:29:28.320Z,17.21
2018-11-06T12:30:28.250Z,17.15
2018-11-06T12:31:28.215Z,17.21
2018-11-06T12:32:28.250Z,17.30
2018-11-06T12:33:28.164Z,17.21
2018-11-06T12:34:28.186Z,17.31
2018-11-06T12:35:28.114Z,17.32
2018-11-06T12:36:28.191Z,17.27
2018-11-06T12:37:28.101Z,17.22
2018-11-06T12:38:28.066Z,17.28
2018-11-06T12:39:28.046Z,17.31
2018-11-06T12:40:28.071Z,17.38
2018-11-06T12:41:28.009Z,17.28
2018-11-06T12:42:27.938Z,17.39
2018-11-06T12:43:27.971Z,17.40
2018-11-06T12:44:27.886Z,17.40
2018-11-06T12:45:27.925Z,17.38
2018-11-06T12:46:27.838Z,17.39
2018-11-06T12:47:27.809Z,17.38
2018-11-06T12:48:27.789Z,17.38
2018-11-06T12:49:27.921Z,17.40
2018-11-06T12:50:27.847Z,17.43
2018-11-06T12:51:27.730Z,17.40
2018-11-06T12:52:27.688Z,17.46
2018-11-06T12:53:27.661Z,17.43
2018-11-06T12:54:27.641Z,17.38
2018-11-06T12:55:27.659Z,17.38
2018-11-06T12:56:27.658Z,17.49
2018-11-06T12:57:27.584Z,17.45
2018-11-06T12:58:27.534Z,17.38
2018-11-06T12:59:27.591Z,17.38
2018-11-06T13:00:27.649Z,17.36
2018-11-06T13:01:27.538Z,17.36